Latest Weather Observations for Oakey

IDQ60901

Issued at 8:35 am EST Friday 21 November 2014 (issued every 10 minutes, with the page automatically refreshed every 10 minutes)

About weather observations | Map of Brisbane area stations | Latest observations for Brisbane area | Other Formats
Station Details ID: 041359 Name: OAKEY AERO Lat: -27.40 Lon: 151.74 Height: 405.69 m
Data from the previous 72 hours. | See also: Recent months at Oakey
Date/Time
EST
Tmp

°C
App
Tmp
°C
Dew
Point
°C
Rel
Hum
%
Delta-T

°C
Wind Press
QNH
hPa
Press
MSL
hPa
Rain
since
9 am
mm
Dir
 
Spd
km/h
Gust
km/h
Spd
kts
Gust
kts
21/08:00am 26.0 23.4 16.0 54 6.2 N 24 30 13 16 1016.9 - 0.0
21/07:30am 25.6 23.8 17.0 59 5.4 N 22 30 12 16 1017.1 - 0.0
21/07:00am 24.9 22.9 17.4 63 4.7 N 24 32 13 17 1016.9 - 0.0
21/06:30am 23.7 23.0 17.4 68 4.0 N 17 24 9 13 1016.7 - 0.0
21/06:00am 22.6 22.6 17.1 71 3.4 NNE 13 15 7 8 1016.3 1014.6 0.0
21/05:30am 21.5 22.3 17.3 77 2.6 NNE 9 13 5 7 1016.3 - 0.0
21/05:00am 20.6 20.6 16.2 76 2.7 NNE 11 15 6 8 1015.9 - 0.0
21/04:30am 21.1 20.4 16.5 75 2.8 NE 15 19 8 10 1015.5 - 0.0
21/04:00am 21.3 20.4 16.9 76 2.7 NE 17 20 9 11 1015.0 - 0.0
21/03:30am 21.1 20.6 16.9 77 2.6 NE 15 19 8 10 1015.0 - 0.0
21/03:00am 21.1 20.6 16.9 77 2.6 NE 15 19 8 10 1015.2 1013.5 0.0
21/02:30am 21.3 20.4 16.9 76 2.7 NE 17 24 9 13 1015.3 - 0.0
21/02:00am 21.4 21.3 17.0 76 2.7 NNE 13 17 7 9 1015.5 - 0.0
21/01:45am 21.6 21.6 17.2 76 2.7 NE 13 19 7 10 1015.5 - 0.0
21/01:30am 21.9 21.7 17.5 76 2.8 NNE 15 20 8 11 1015.8 - 0.0
21/01:00am 22.3 21.8 17.7 75 2.9 NNE 17 22 9 12 1016.0 - 0.0
21/12:33am 22.2 22.2 17.3 74 3.1 NNE 13 17 7 9 1016.3 - 0.0
21/12:30am 22.1 22.2 17.5 75 2.9 NNE 13 17 7 9 1016.3 - 0.0
21/12:00am 22.4 21.2 17.5 74 3.1 NE 20 26 11 14 1016.3 1014.6 0.0
 
Date/Time
EST
Tmp

°C
App
Tmp
°C
Dew
Point
°C
Rel
Hum
%
Delta-T

°C
Wind Press
QNH
hPa
Press
MSL
hPa
Rain
since
9 am
mm
Dir
 
Spd
km/h
Gust
km/h
Spd
kts
Gust
kts
20/11:30pm 22.6 22.0 17.5 73 3.2 NE 17 26 9 14 1016.4 - 0.0
20/11:00pm 23.0 21.2 17.9 73 3.2 NE 24 28 13 15 1016.4 - 0.0
20/10:30pm 23.4 21.3 18.1 72 3.4 NE 26 37 14 20 1016.6 - 0.0
20/10:00pm 23.2 22.8 18.1 73 3.2 NE 17 22 9 12 1016.9 - 0.0
20/09:30pm 23.3 22.3 18.0 72 3.4 NE 20 28 11 15 1017.0 - 0.0
20/09:00pm 23.8 22.4 18.0 70 3.7 NE 22 30 12 16 1016.8 1015.1 0.0
20/08:30pm 24.3 21.8 18.0 68 4.0 NE 28 35 15 19 1016.4 - 0.0
20/08:00pm 25.1 23.4 18.1 65 4.5 NE 24 37 13 20 1015.9 - 0.0
20/07:30pm 25.2 22.8 18.2 65 4.5 NE 28 33 15 18 1015.3 - 0.0
20/07:00pm 26.0 23.4 17.9 61 5.2 NE 28 35 15 19 1015.0 - 0.0
20/06:30pm 27.1 23.9 17.3 55 6.2 NE 30 35 16 19 1014.5 - 0.0
20/06:00pm 28.0 24.4 17.2 52 6.9 NE 32 39 17 21 1014.0 1012.3 0.0
20/05:30pm 30.1 26.2 13.4 36 10.1 NE 26 32 14 17 1013.4 - 0.0
20/05:00pm 30.2 26.4 13.5 36 10.2 NE 26 32 14 17 1013.1 - 0.0
20/04:30pm 30.5 27.9 13.3 35 10.4 NE 19 26 10 14 1013.1 - 0.0
20/04:00pm 30.8 28.1 13.6 35 10.5 NNE 20 28 11 15 1013.1 - 0.0
20/03:30pm 32.4 30.2 15.0 35 10.9 NE 20 30 11 16 1013.3 - 0.0
20/03:00pm 31.1 28.7 14.3 36 10.4 NE 20 30 11 16 1013.6 1011.9 0.0
20/02:30pm 30.9 27.9 13.7 35 10.5 NNE 22 35 12 19 1013.8 - 0.0
20/02:00pm 31.5 29.9 12.8 32 11.3 NNE 13 22 7 12 1014.2 - 0.0
20/01:30pm 31.6 29.8 13.4 33 11.1 NNE 15 28 8 15 1014.5 - 0.0
20/01:00pm 30.5 28.4 13.7 35 10.3 NE 17 26 9 14 1014.9 - 0.0
20/12:30pm 32.7 30.6 14.8 34 11.2 NE 19 20 10 11 1015.4 - 0.0
20/12:00pm 31.7 30.5 13.9 34 10.9 N 13 22 7 12 1016.2 1014.5 0.0
20/11:30am 30.0 29.0 14.5 38 9.6 NNW 13 24 7 13 1016.7 - 0.0
20/11:00am 29.1 28.5 14.5 41 9.0 NNE 11 19 6 10 1017.4 - 0.0
20/10:30am 28.2 27.8 15.1 44 8.1 NW 11 24 6 13 1018.1 - 0.0
20/10:00am 26.9 25.4 14.3 46 7.7 N 15 24 8 13 1018.5 - 0.0
20/09:30am 26.6 25.1 15.3 50 7.0 N 17 26 9 14 1018.8 - 0.0
20/09:00am 25.8 25.9 15.5 53 6.3 N 9 20 5 11 1019.0 1017.3 0.0
20/08:30am 25.0 25.1 15.6 56 5.8 NNE 9 17 5 9 1019.1 - 0.0
20/08:00am 24.0 23.3 15.5 59 5.2 N 13 20 7 11 1019.0 - 0.0
20/07:30am 22.3 21.2 15.2 64 4.3 NE 15 24 8 13 1018.9 - 0.0
20/07:00am 21.0 19.1 15.1 69 3.5 NE 19 24 10 13 1018.8 - 0.0
20/06:00am 19.6 17.3 14.6 73 3.0 NE 20 24 11 13 1018.5 1016.8 0.0
20/05:30am 18.8 17.1 14.7 77 2.4 NE 17 20 9 11 1018.0 - 0.0
20/05:00am 18.1 16.7 14.6 80 2.1 ENE 15 17 8 9 1017.8 - 0.0
20/04:30am 17.7 16.6 14.4 81 1.9 NE 13 15 7 8 1017.2 - 0.0
20/04:00am 18.1 16.8 14.8 81 2.0 NE 15 17 8 9 1016.7 - 0.0
20/03:30am 17.6 16.5 14.3 81 1.9 E 13 17 7 9 1016.4 - 0.0
20/03:00am 18.4 16.6 14.5 78 2.3 ENE 17 20 9 11 1016.5 1014.8 0.0
20/02:30am 17.9 16.8 14.4 80 2.1 ENE 13 17 7 9 1016.5 - 0.0
20/02:00am 18.5 18.6 14.4 77 2.4 NE 7 9 4 5 1016.6 - 0.0
20/01:30am 19.4 18.4 14.6 74 2.8 N 13 20 7 11 1016.9 - 0.0
20/01:00am 19.4 18.9 14.9 75 2.7 N 11 13 6 7 1017.1 - 0.0
20/12:30am 20.5 19.5 15.7 74 2.9 NNE 15 19 8 10 1017.6 - 0.0
20/12:00am 20.9 18.5 16.3 75 2.8 NNE 24 32 13 17 1017.7 1016.0 0.0
 
Date/Time
EST
Tmp

°C
App
Tmp
°C
Dew
Point
°C
Rel
Hum
%
Delta-T

°C
Wind Press
QNH
hPa
Press
MSL
hPa
Rain
since
9 am
mm
Dir
 
Spd
km/h
Gust
km/h
Spd
kts
Gust
kts
19/11:58pm 20.9 18.5 16.3 75 2.8 NNE 24 33 13 18 1017.7 - 0.0
19/11:30pm 21.4 18.5 17.0 76 2.7 NNE 28 35 15 19 1017.9 - 0.0
19/11:06pm 21.2 19.0 16.8 76 2.7 NE 24 32 13 17 1018.0 - 0.0
19/11:00pm 21.2 19.3 16.8 76 2.7 NE 22 28 12 15 1018.0 - 0.0
19/10:30pm 21.1 18.8 16.7 76 2.7 NE 24 32 13 17 1018.5 - 0.0
19/10:00pm 21.3 18.3 16.7 75 2.8 ENE 28 39 15 21 1018.3 - 0.0
19/09:30pm 20.9 17.0 16.9 78 2.5 ENE 33 43 18 23 1018.1 - 0.0
19/09:00pm 21.3 17.4 16.9 76 2.7 ENE 33 44 18 24 1017.7 1016.0 0.0
19/08:30pm 21.6 16.9 16.8 74 3.0 ENE 37 50 20 27 1017.2 - 0.0
19/08:00pm 21.5 17.9 17.3 77 2.6 ENE 32 43 17 23 1017.1 - 0.0
19/07:30pm 21.4 16.8 17.2 77 2.6 ENE 37 46 20 25 1016.3 - 0.0
19/07:00pm 21.4 16.5 17.2 77 2.6 ENE 39 48 21 26 1015.7 - 0.0
19/06:40pm 22.0 16.4 16.5 71 3.4 ENE 41 59 22 32 1015.7 - 0.0
19/06:30pm 22.2 16.7 15.8 67 3.9 ENE 39 54 21 29 1015.7 - 0.0
19/06:00pm 22.7 16.3 15.5 64 4.4 ENE 43 63 23 34 1015.5 1013.8 0.0
19/05:38pm 23.3 16.3 15.4 61 4.8 ENE 46 65 25 35 1015.1 - 0.0
19/05:30pm 23.6 17.6 16.9 66 4.2 ENE 44 59 24 32 1014.9 - 0.0
19/05:00pm 25.8 20.6 17.4 59 5.3 E 41 57 22 31 1014.1 - 0.0
19/04:31pm 28.9 24.8 16.5 47 7.9 E 33 43 18 23 1013.3 - 0.0
19/04:00pm 29.7 27.7 13.9 38 9.6 E 17 22 9 12 1013.2 - 0.0
19/03:30pm 29.8 25.6 13.5 36 9.9 ENE 28 33 15 18 1013.8 - 0.0
19/03:00pm 28.8 23.5 14.2 40 8.9 ESE 35 43 19 23 1014.2 1012.5 0.0
19/02:39pm 28.9 23.3 15.4 44 8.4 ENE 39 44 21 24 1014.7 - 0.0
19/02:30pm 29.8 25.5 15.5 42 8.9 ESE 32 37 17 20 1014.8 - 0.0
19/02:22pm 27.7 21.6 14.0 43 8.3 SE 39 43 21 23 1014.9 - 0.0
19/02:05pm 26.4 20.1 13.5 45 7.7 S 39 52 21 28 1015.4 - 0.0
19/01:58pm 28.0 22.9 12.0 37 9.4 SW 30 57 16 31 1015.8 - 0.0
19/01:30pm 31.0 29.5 16.2 41 9.4 N 19 32 10 17 1015.4 - 0.0
19/01:00pm 31.5 30.0 16.3 40 9.7 NE 19 28 10 15 1015.7 - 0.0
19/12:30pm 31.0 29.6 17.0 43 9.0 NE 20 32 11 17 1016.2 - 0.0
19/12:00pm 30.2 29.2 18.0 48 7.9 NE 20 32 11 17 1016.8 1015.1 0.0
19/11:30am 30.4 29.7 18.2 48 8.0 NE 19 28 10 15 1017.0 - 0.0
19/11:00am 29.6 28.5 17.8 49 7.6 NE 20 28 11 15 1017.4 - 0.0
19/10:30am 29.5 28.1 18.0 50 7.5 NE 22 32 12 17 1017.6 - 0.0
19/10:00am 29.7 28.8 18.2 50 7.5 NE 20 28 11 15 1018.0 - 0.0
19/09:30am 28.7 28.2 17.9 52 7.0 NE 17 24 9 13 1018.3 - 0.0
19/09:00am 28.6 28.1 18.7 55 6.5 ENE 19 30 10 16 1018.4 1016.7 0.0
19/08:30am 28.0 26.9 18.7 57 6.1 ENE 22 30 12 16 1018.4 - 0.0
19/08:00am 26.8 26.2 18.9 62 5.1 E 20 28 11 15 1018.6 - 0.0
19/07:30am 26.3 25.8 19.2 65 4.6 E 20 26 11 14 1018.6 - 0.0
19/07:00am 25.2 25.0 19.3 70 3.8 NE 19 24 10 13 1018.4 - 0.0
19/06:30am 23.8 23.9 19.1 75 3.0 NE 17 20 9 11 1018.0 - 0.0
19/06:00am 22.9 24.0 19.7 82 2.1 NE 13 17 7 9 1017.9 1016.3 0.0
19/05:30am 21.3 22.2 19.2 88 1.4 NE 13 13 7 7 1017.4 - 0.0
19/05:10am 21.1 22.4 19.2 89 1.2 NE 11 15 6 8 1017.1 - 0.0
19/05:00am 21.2 22.1 19.3 89 1.2 NE 13 17 7 9 1017.0 - 0.0
19/04:39am 20.6 22.0 18.7 89 1.2 NE 9 11 5 6 1016.9 - 0.0
19/04:30am 20.5 21.8 18.4 88 1.3 NE 9 11 5 6 1016.8 - 0.0
19/04:00am 20.8 22.0 18.2 85 1.6 NE 9 11 5 6 1016.4 - 0.0
19/03:30am 21.3 21.7 19.0 87 1.5 NE 15 20 8 11 1016.3 - 0.0
19/03:00am 21.2 21.4 19.3 89 1.2 NE 17 20 9 11 1016.2 1014.5 0.0
19/02:30am 20.4 21.0 18.7 90 1.1 NE 13 15 7 8 1016.0 - 0.0
19/02:00am 20.1 21.4 18.4 90 1.1 NE 9 11 5 6 1016.0 - 0.0
19/01:30am 20.3 20.8 18.4 89 1.2 NE 13 15 7 8 1016.1 - 0.0
19/01:00am 20.8 22.1 18.4 86 1.5 NE 9 13 5 7 1016.3 - 0.0
19/12:30am 20.7 21.9 18.3 86 1.5 ENE 9 13 5 7 1016.7 - 0.0
19/12:00am 21.1 22.0 18.5 85 1.7 ESE 11 13 6 7 1017.0 1015.3 0.0
 
Date/Time
EST
Tmp

°C
App
Tmp
°C
Dew
Point
°C
Rel
Hum
%
Delta-T

°C
Wind Press
QNH
hPa
Press
MSL
hPa
Rain
since
9 am
mm
Dir
 
Spd
km/h
Gust
km/h
Spd
kts
Gust
kts
18/11:30pm 21.8 23.0 18.2 80 2.3 ENE 9 13 5 7 1017.1 - 0.0
18/11:00pm 22.8 23.2 19.0 79 2.4 ENE 15 19 8 10 1017.4 - 0.0
18/10:30pm 23.5 23.9 19.0 76 2.9 NE 15 17 8 9 1017.4 - 0.0
18/10:00pm 24.4 24.5 19.2 73 3.4 ENE 17 22 9 12 1016.9 - 0.0
18/09:30pm 25.0 24.6 19.4 71 3.7 ENE 20 24 11 13 1017.1 - 0.0
18/09:00pm 25.5 24.9 18.9 67 4.3 ENE 20 26 11 14 1016.8 1015.1 0.0
18/08:30pm 24.8 21.6 2.9 24 10.8 SE 9 13 5 7 1016.3 - 0.0
18/08:00pm 27.9 23.7 1.4 18 13.0 SSE 13 17 7 9 1015.7 - 0.0
18/07:30pm 28.8 24.0 0.5 16 13.8 SSE 15 19 8 10 1015.7 - 0.0
18/07:00pm 29.1 24.9 1.6 17 13.7 SSW 13 17 7 9 1015.1 - 0.0
18/06:30pm 29.4 25.2 1.8 17 13.8 SSW 13 17 7 9 1014.7 - 0.0
18/06:00pm 31.5 26.3 2.7 16 14.8 SW 19 24 10 13 1014.0 1012.3 0.0
18/05:30pm 33.0 27.6 4.7 17 15.2 SW 22 30 12 16 1013.5 - 0.0
18/05:00pm 33.0 27.8 7.1 20 14.4 SW 24 32 13 17 1012.9 - 0.0
18/04:30pm 34.3 29.9 8.8 21 14.7 WSW 22 37 12 20 1012.4 - 0.0
18/04:00pm 34.0 31.4 10.6 24 13.8 W 15 28 8 15 1012.5 - 0.0
18/03:30pm 32.9 29.5 11.4 27 12.8 WSW 20 28 11 15 1012.8 - 0.0
18/03:00pm 32.8 30.7 11.3 27 12.8 W 13 24 7 13 1013.2 1011.4 0.0
18/02:30pm 32.8 31.1 12.4 29 12.3 SW 13 19 7 10 1013.6 - 0.0
18/02:00pm 32.4 28.3 11.6 28 12.4 W 24 32 13 17 1014.0 - 0.0
18/01:30pm 32.5 30.0 12.2 29 12.2 W 17 32 9 17 1014.3 - 0.0
18/01:00pm 32.0 29.3 12.8 31 11.6 W 19 32 10 17 1014.6 - 0.0
18/12:30pm 32.2 30.6 13.9 33 11.3 SW 15 24 8 13 1015.0 - 0.0
18/12:00pm 31.6 30.6 13.4 33 11.1 NW 11 19 6 10 1015.5 1013.8 0.0
18/11:30am 30.5 30.7 14.2 37 10.0 NNW 6 9 3 5 1015.9 - 0.0
18/11:00am 30.1 30.4 15.0 40 9.4 S 7 13 4 7 1016.4 - 0.0
18/10:30am 28.7 29.1 15.2 43 8.4 SW 7 11 4 6 1016.7 - 0.0
18/10:00am 28.6 29.1 15.5 45 8.2 NW 7 26 4 14 1017.1 - 0.0
18/09:30am 27.4 27.5 16.4 51 6.9 NE 11 20 6 11 1017.2 - 0.0
18/09:00am 26.8 26.2 16.7 54 6.4 NE 15 20 8 11 1017.2 1015.5 -

Latest Capital City Observations: Canberra | Sydney | Melbourne | Brisbane | Adelaide | Perth | Hobart | Darwin

Other Formats:

Comma delimited format used in spreadsheet applications
http://www.bom.gov.au/fwo/IDQ60901/IDQ60901.94552.axf

JavaScript Object Notation format (JSON) in row-major order
http://www.bom.gov.au/fwo/IDQ60901/IDQ60901.94552.json